Time;durP1;ratioP1;P1;durP2;ratioP2;P2;SDS_P1;SDS_P2;PMS_P1;PMS_P2;Temp;Humidity;BMP_temperature;BMP_pressure;BME280_temperature;BME280_humidity;BME280_pressure;Samples;Min_cycle;Max_cycle;Signal;HPM_P1;HPM_P2
2023/03/30 01:04:36;;;;;;;7.30;2.53;;;13.00;99.90;;;;;;4933710;28;20052;-76
2023/03/30 01:07:03;;;;;;;5.75;2.08;;;13.10;99.90;;;;;;4941904;28;38200;-77
2023/03/30 01:09:29;;;;;;;5.70;2.67;;;13.20;99.90;;;;;;4924617;28;38507;-75
2023/03/30 01:11:56;;;;;;;6.53;2.58;;;13.30;99.90;;;;;;4944525;28;37559;-76
2023/03/30 01:14:22;;;;;;;6.22;2.40;;;13.30;99.90;;;;;;4933887;28;39684;-76
2023/03/30 01:17:02;;;;;;;11.48;2.97;;;13.30;99.90;;;;;;4930336;28;37476;-77
2023/03/30 01:20:10;;;;;;;4.47;2.60;;;13.30;99.90;;;;;;4920560;28;47505;-76
2023/03/30 01:23:04;;;;;;;7.35;3.10;;;13.30;99.90;;;;;;4944576;28;47999;-76
2023/03/30 01:25:58;;;;;;;8.82;2.67;;;13.30;99.90;;;;;;4942351;28;48509;-78
2023/03/30 01:28:54;;;;;;;7.22;2.60;;;13.30;99.90;;;;;;4923277;28;39109;-77
2023/03/30 01:31:47;;;;;;;5.68;3.05;;;13.30;99.90;;;;;;4944921;28;37704;-77
2023/03/30 01:34:13;;;;;;;4.57;2.75;;;13.40;99.90;;;;;;4943071;28;38287;-75
2023/03/30 01:37:17;;;;;;;6.07;2.80;;;13.50;99.90;;;;;;4934795;28;39540;-76
2023/03/30 01:40:12;;;;;;;6.70;2.90;;;13.40;99.90;;;;;;4940035;28;49352;-76
2023/03/30 01:43:03;;;;;;;7.50;2.63;;;13.30;99.90;;;;;;4933820;28;46859;-76
2023/03/30 01:46:05;;;;;;;5.65;2.70;;;13.30;99.90;;;;;;4952774;28;49207;-76
2023/03/30 01:48:45;;;;;;;6.43;2.40;;;13.20;99.90;;;;;;4876204;29;47078;-76
2023/03/30 01:51:21;;;;;;;5.95;2.83;;;13.10;99.90;;;;;;4943491;28;36756;-75
2023/03/30 01:54:03;;;;;;;7.00;3.40;;;13.10;99.90;;;;;;4953866;28;37822;-76
2023/03/30 01:56:40;;;;;;;5.32;2.67;;;13.00;99.90;;;;;;4932162;28;47229;-76
2023/03/30 01:59:15;;;;;;;4.65;1.95;;;13.10;99.90;;;;;;4956194;28;38580;-75
2023/03/30 02:01:48;;;;;;;7.78;2.33;;;13.10;99.90;;;;;;4949984;28;39573;-75
2023/03/30 02:04:18;;;;;;;10.32;2.40;;;13.20;99.90;;;;;;4928221;28;36930;-75
2023/03/30 02:06:53;;;;;;;4.55;1.92;;;13.20;99.90;;;;;;4947307;28;35961;-75
2023/03/30 02:09:22;;;;;;;5.78;3.08;;;13.30;99.90;;;;;;4955605;28;40022;-75
2023/03/30 02:11:52;;;;;;;6.82;2.70;;;13.30;99.90;;;;;;4950246;28;38883;-75
2023/03/30 02:14:25;;;;;;;8.13;1.98;;;13.30;99.90;;;;;;4939314;28;36561;-75
2023/03/30 02:17:01;;;;;;;7.95;2.03;;;13.40;99.90;;;;;;4938944;28;37475;-75
2023/03/30 02:19:29;;;;;;;4.97;2.25;;;13.40;99.90;;;;;;4946449;28;48693;-75
2023/03/30 02:21:55;;;;;;;8.00;2.35;;;13.40;99.90;;;;;;4930945;28;37230;-75
2023/03/30 02:24:26;;;;;;;6.68;2.40;;;13.50;99.90;;;;;;4934347;28;38183;-76
2023/03/30 02:26:53;;;;;;;5.85;2.10;;;13.40;99.90;;;;;;4936024;28;36310;-77
2023/03/30 02:29:23;;;;;;;7.55;2.47;;;13.30;99.90;;;;;;4953505;28;39015;-77
2023/03/30 02:31:53;;;;;;;7.22;2.55;;;13.10;99.90;;;;;;4956112;28;38219;-76
2023/03/30 02:34:45;;;;;;;7.18;2.28;;;13.10;99.90;;;;;;4940175;28;37040;-75
2023/03/30 02:37:31;;;;;;;5.35;2.40;;;13.10;99.90;;;;;;4933064;28;36361;-77
2023/03/30 02:40:36;;;;;;;7.53;2.17;;;13.10;99.90;;;;;;4936004;28;38911;-74
2023/03/30 02:43:32;;;;;;;7.70;2.67;;;13.10;99.90;;;;;;4916843;28;48281;-75
2023/03/30 02:46:30;;;;;;;6.78;2.17;;;13.10;99.90;;;;;;4937014;28;40582;-75
2023/03/30 02:49:13;;;;;;;7.57;1.83;;;13.10;99.90;;;;;;4933419;28;46901;-75
2023/03/30 02:51:42;;;;;;;;;;;13.10;99.90;;;;;;4949862;28;48222;-75
2023/03/30 02:54:23;;;;;;;3.58;1.52;;;13.20;99.90;;;;;;4955810;28;39021;-75
2023/03/30 02:57:10;;;;;;;3.13;1.35;;;13.30;99.90;;;;;;4931985;28;38471;-75
2023/03/30 02:59:51;;;;;;;7.47;1.40;;;13.30;99.90;;;;;;4931491;28;47005;-77
2023/03/30 03:02:23;;;;;;;7.20;2.08;;;13.40;99.90;;;;;;4933691;28;38747;-78
2023/03/30 03:04:52;;;;;;;2.60;1.17;;;13.40;99.90;;;;;;4952244;28;38486;-77
2023/03/30 03:07:19;;;;;;;5.40;1.33;;;13.50;99.90;;;;;;4954869;28;37342;-77
2023/03/30 03:09:46;;;;;;;6.47;1.60;;;13.50;99.90;;;;;;4948061;28;35967;-77
2023/03/30 03:12:12;;;;;;;3.17;1.30;;;13.50;99.90;;;;;;4944001;28;37649;-77
2023/03/30 03:14:38;;;;;;;6.50;1.55;;;13.50;99.90;;;;;;4932538;28;38609;-77
2023/03/30 03:17:05;;;;;;;8.40;1.67;;;13.60;99.90;;;;;;4941762;28;36983;-75
2023/03/30 03:19:31;;;;;;;8.23;1.58;;;13.60;99.90;;;;;;4952910;28;37855;-75
2023/03/30 03:21:57;;;;;;;7.95;1.73;;;13.60;99.90;;;;;;4952722;28;38815;-76
2023/03/30 03:24:24;;;;;;;17.30;2.05;;;13.60;99.90;;;;;;4942853;28;37201;-76
2023/03/30 03:26:50;;;;;;;11.82;1.80;;;13.60;99.90;;;;;;4965150;28;38294;-77
2023/03/30 03:29:16;;;;;;;15.40;2.40;;;13.70;99.90;;;;;;4940989;28;36366;-77
2023/03/30 03:31:42;;;;;;;8.88;1.50;;;13.70;99.90;;;;;;4942465;28;39128;-77
2023/03/30 03:34:08;;;;;;;9.63;1.95;;;13.70;99.90;;;;;;4931678;28;37414;-78
2023/03/30 03:36:34;;;;;;;8.75;1.85;;;13.60;99.90;;;;;;4938206;28;37155;-77
2023/03/30 03:39:00;;;;;;;9.95;2.17;;;13.60;99.90;;;;;;4933469;28;36821;-76
2023/03/30 03:41:26;;;;;;;7.32;1.85;;;13.60;99.90;;;;;;4952070;28;47522;-76
2023/03/30 03:43:52;;;;;;;10.90;2.22;;;13.60;99.90;;;;;;4943709;28;38095;-76
2023/03/30 03:46:19;;;;;;;13.00;2.63;;;13.60;99.90;;;;;;4937809;28;39079;-76
2023/03/30 03:48:45;;;;;;;17.27;2.72;;;13.60;99.90;;;;;;4958545;28;38155;-77
2023/03/30 03:51:12;;;;;;;11.90;2.72;;;13.50;99.90;;;;;;4925793;28;38628;-75
2023/03/30 03:53:38;;;;;;;13.65;2.22;;;13.50;99.90;;;;;;4946528;28;39442;-77
2023/03/30 03:56:04;;;;;;;15.57;3.42;;;13.40;99.90;;;;;;4935486;28;36734;-77
2023/03/30 03:58:31;;;;;;;15.00;2.75;;;13.30;99.90;;;;;;4938405;28;36968;-75
2023/03/30 04:00:59;;;;;;;18.95;3.15;;;13.10;99.90;;;;;;4945965;28;40156;-74
2023/03/30 04:03:25;;;;;;;18.83;3.45;;;13.00;99.90;;;;;;4936326;28;38232;-75
2023/03/30 04:05:51;;;;;;;19.75;4.15;;;12.90;99.90;;;;;;4946102;28;37837;-75
2023/03/30 04:08:18;;;;;;;20.55;3.45;;;12.70;99.90;;;;;;4947589;28;36573;-75
2023/03/30 04:10:44;;;;;;;13.35;3.10;;;12.60;99.90;;;;;;4938296;28;37742;-76
2023/03/30 04:13:10;;;;;;;26.33;4.63;;;12.60;99.90;;;;;;4933740;28;38631;-76
2023/03/30 04:15:36;;;;;;;13.75;3.25;;;12.50;99.90;;;;;;4928181;28;37164;-76
2023/03/30 04:18:03;;;;;;;21.35;3.85;;;12.50;99.90;;;;;;4954068;28;37902;-75
2023/03/30 04:20:30;;;;;;;23.40;3.85;;;12.50;99.90;;;;;;4950263;28;39915;-75
2023/03/30 04:22:56;;;;;;;26.38;5.25;;;12.40;99.90;;;;;;4935675;28;37055;-75
2023/03/30 04:25:27;;;;;;;23.40;3.42;;;12.40;99.90;;;;;;4933061;28;37040;-75
2023/03/30 04:27:54;;;;;;;22.88;4.13;;;12.40;99.90;;;;;;4935984;28;36938;-75
2023/03/30 04:30:21;;;;;;;28.63;4.38;;;12.40;99.90;;;;;;4931750;28;37616;-74
2023/03/30 04:33:01;;;;;;;30.75;4.72;;;12.40;99.90;;;;;;4931363;28;37507;-75
2023/03/30 04:35:33;;;;;;;20.92;4.00;;;12.40;99.90;;;;;;4948110;28;48419;-75
2023/03/30 04:38:00;;;;;;;23.10;4.93;;;12.40;99.90;;;;;;4958904;28;37829;-75
2023/03/30 04:40:27;;;;;;;32.50;5.30;;;12.30;99.90;;;;;;4929769;28;38639;-75
2023/03/30 04:42:54;;;;;;;25.83;4.32;;;12.30;99.90;;;;;;4935950;28;37581;-76
2023/03/30 04:45:20;;;;;;;22.88;4.03;;;12.30;99.90;;;;;;4927699;28;37712;-75
2023/03/30 04:47:46;;;;;;;36.50;6.28;;;12.20;99.90;;;;;;4924016;28;36394;-75
2023/03/30 04:50:13;;;;;;;29.38;5.55;;;12.20;99.90;;;;;;4949628;28;39876;-75
2023/03/30 04:52:39;;;;;;;26.20;3.90;;;12.20;99.90;;;;;;4931437;28;37340;-75
2023/03/30 04:55:07;;;;;;;29.90;5.00;;;12.10;99.90;;;;;;4924432;28;39185;-75
2023/03/30 04:57:33;;;;;;;29.27;4.80;;;12.10;99.90;;;;;;4938292;28;36244;-75
2023/03/30 05:00:00;;;;;;;25.15;4.97;;;12.00;99.90;;;;;;4941963;28;38663;-75
2023/03/30 05:02:26;;;;;;;34.35;4.47;;;12.00;99.90;;;;;;4933332;28;37342;-75
2023/03/30 05:04:52;;;;;;;28.42;4.68;;;11.90;99.90;;;;;;4930441;28;38004;-77
2023/03/30 05:07:18;;;;;;;28.52;5.25;;;11.90;99.90;;;;;;4923407;28;36337;-75
2023/03/30 05:09:44;;;;;;;29.60;4.93;;;11.80;99.90;;;;;;4946519;28;39032;-74
2023/03/30 05:12:10;;;;;;;31.08;4.95;;;11.80;99.90;;;;;;4933121;28;37384;-74
2023/03/30 05:14:36;;;;;;;43.28;5.63;;;11.70;99.90;;;;;;4937331;28;38819;-74
2023/03/30 05:17:03;;;;;;;28.83;4.18;;;11.80;99.90;;;;;;4943016;28;37018;-76
2023/03/30 05:19:29;;;;;;;35.22;5.90;;;11.70;99.90;;;;;;4945757;28;39944;-74
2023/03/30 05:21:55;;;;;;;24.98;4.65;;;11.70;99.90;;;;;;4941278;28;39983;-74
2023/03/30 05:24:21;;;;;;;39.72;5.70;;;11.70;99.90;;;;;;4939591;28;38308;-75
2023/03/30 05:26:47;;;;;;;34.92;5.00;;;11.60;99.90;;;;;;4922814;28;36226;-74
2023/03/30 05:29:14;;;;;;;33.05;4.97;;;11.60;99.90;;;;;;4923457;28;37619;-73
2023/03/30 05:31:40;;;;;;;30.05;4.70;;;11.60;99.90;;;;;;4940534;28;38823;-74
2023/03/30 05:34:06;;;;;;;33.90;4.60;;;11.50;99.90;;;;;;4929860;28;37087;-74
2023/03/30 05:36:34;;;;;;;36.72;6.22;;;11.60;99.90;;;;;;4931973;28;36332;-75
2023/03/30 05:39:03;;;;;;;32.60;5.80;;;11.50;99.90;;;;;;4948886;28;38902;-74
2023/03/30 05:41:30;;;;;;;27.92;5.03;;;11.50;99.90;;;;;;4933191;28;47246;-74
2023/03/30 05:43:56;;;;;;;32.55;4.47;;;11.40;99.90;;;;;;4945704;28;38262;-73
2023/03/30 05:46:22;;;;;;;34.20;6.03;;;11.40;99.90;;;;;;4949880;28;38166;-74
2023/03/30 05:48:49;;;;;;;29.67;5.00;;;11.50;99.90;;;;;;4933719;28;37856;-75
2023/03/30 05:51:15;;;;;;;46.40;5.35;;;11.60;99.90;;;;;;4949506;28;38809;-74
2023/03/30 05:53:41;;;;;;;28.52;4.68;;;11.60;99.90;;;;;;4938969;28;36922;-74
2023/03/30 05:56:09;;;;;;;27.65;5.82;;;11.70;99.90;;;;;;4933548;28;36245;-74
2023/03/30 05:58:35;;;;;;;30.30;4.85;;;11.80;99.90;;;;;;4933157;28;37417;-74
2023/03/30 06:01:02;;;;;;;30.33;4.95;;;11.90;99.90;;;;;;4933084;28;38414;-73
2023/03/30 06:03:28;;;;;;;30.15;5.00;;;11.90;99.90;;;;;;4940627;28;36856;-74
2023/03/30 06:05:54;;;;;;;40.13;5.78;;;11.90;99.90;;;;;;4962619;28;37210;-75
2023/03/30 06:08:20;;;;;;;32.00;5.30;;;11.90;99.90;;;;;;4939320;28;37670;-74
2023/03/30 06:10:54;;;;;;;28.17;4.97;;;11.90;99.90;;;;;;4949088;28;38642;-74
2023/03/30 06:13:21;;;;;;;22.90;4.35;;;12.00;99.90;;;;;;4955475;28;36985;-75
2023/03/30 06:15:47;;;;;;;25.25;4.50;;;12.00;99.90;;;;;;4949229;28;38133;-75
2023/03/30 06:18:13;;;;;;;23.83;4.45;;;12.10;99.90;;;;;;4945282;28;37771;-74
2023/03/30 06:20:39;;;;;;;31.02;4.95;;;12.10;99.90;;;;;;4970647;28;38962;-75
2023/03/30 06:23:05;;;;;;;35.15;5.13;;;12.10;99.90;;;;;;4938483;28;37037;-75
2023/03/30 06:25:32;;;;;;;28.70;5.25;;;12.10;99.90;;;;;;4937265;28;35663;-75
2023/03/30 06:27:58;;;;;;;28.95;5.25;;;12.00;99.90;;;;;;4955738;28;39792;-75
2023/03/30 06:30:24;;;;;;;34.67;5.38;;;12.00;99.90;;;;;;4953485;28;38105;-75
2023/03/30 06:32:50;;;;;;;38.10;6.53;;;11.90;99.90;;;;;;4950741;28;37986;-75
2023/03/30 06:35:16;;;;;;;33.38;6.38;;;11.90;99.90;;;;;;4939430;28;36328;-74
2023/03/30 06:37:43;;;;;;;35.03;5.43;;;11.90;99.90;;;;;;4956139;28;37673;-75
2023/03/30 06:40:12;;;;;;;32.60;5.97;;;11.90;99.90;;;;;;4946949;28;38478;-74
2023/03/30 06:42:40;;;;;;;28.00;5.25;;;11.90;99.90;;;;;;4941117;28;37235;-75
2023/03/30 06:45:07;;;;;;;33.90;5.70;;;12.00;99.90;;;;;;4963084;28;36998;-75
2023/03/30 06:47:33;;;;;;;32.03;5.20;;;12.00;99.90;;;;;;4946117;28;39556;-74
2023/03/30 06:49:59;;;;;;;34.55;5.35;;;12.00;99.90;;;;;;4963308;28;39363;-73
2023/03/30 06:52:25;;;;;;;26.23;5.45;;;12.00;99.90;;;;;;4962493;28;38200;-75
2023/03/30 06:54:51;;;;;;;35.28;6.45;;;12.10;99.90;;;;;;4955929;28;36701;-74
2023/03/30 06:57:17;;;;;;;33.58;6.35;;;12.10;99.90;;;;;;4950615;28;37661;-74
2023/03/30 06:59:43;;;;;;;37.55;6.43;;;12.10;99.90;;;;;;4933355;28;37764;-74
2023/03/30 07:02:13;;;;;;;29.98;5.55;;;12.10;99.90;;;;;;4958571;28;39174;-75
2023/03/30 07:04:39;;;;;;;33.50;5.45;;;12.20;99.90;;;;;;4943781;28;37685;-76
2023/03/30 07:07:07;;;;;;;32.08;5.53;;;12.40;99.90;;;;;;4938981;28;20516;-73
2023/03/30 07:09:33;;;;;;;26.90;4.95;;;12.50;99.90;;;;;;4965068;28;38574;-76
2023/03/30 07:11:59;;;;;;;36.15;6.25;;;12.60;99.90;;;;;;4958764;28;38255;-74
2023/03/30 07:14:26;;;;;;;26.70;5.45;;;12.60;99.90;;;;;;4941413;28;36215;-74
2023/03/30 07:16:52;;;;;;;32.70;5.15;;;12.60;99.90;;;;;;4966328;28;39050;-75
2023/03/30 07:19:18;;;;;;;37.10;6.32;;;12.60;99.90;;;;;;4938781;28;38092;-75
2023/03/30 07:21:44;;;;;;;32.38;6.07;;;12.60;99.90;;;;;;4936472;28;37069;-75
2023/03/30 07:24:10;;;;;;;40.05;6.45;;;12.60;99.90;;;;;;4937696;28;35942;-74
2023/03/30 07:26:36;;;;;;;44.70;6.18;;;12.70;99.90;;;;;;4935578;28;37781;-75
2023/03/30 07:29:04;;;;;;;30.15;6.10;;;12.70;99.90;;;;;;4954479;28;38706;-76
2023/03/30 07:31:30;;;;;;;34.20;6.13;;;12.60;99.90;;;;;;4946761;28;38522;-75
2023/03/30 07:33:57;;;;;;;25.00;5.40;;;12.60;99.90;;;;;;4936600;28;36786;-75
2023/03/30 07:36:26;;;;;;;37.40;6.03;;;12.60;99.90;;;;;;4918059;28;40135;-75
2023/03/30 07:38:52;;;;;;;33.95;6.05;;;12.60;99.90;;;;;;4930464;28;36614;-75
2023/03/30 07:41:18;;;;;;;32.78;6.25;;;12.70;99.90;;;;;;4935006;28;36855;-75
2023/03/30 07:43:44;;;;;;;41.58;6.80;;;12.60;99.90;;;;;;4955189;28;38031;-74
2023/03/30 07:46:11;;;;;;;44.00;6.15;;;12.50;99.90;;;;;;4959721;28;39059;-75
2023/03/30 07:48:38;;;;;;;43.85;6.97;;;12.50;99.90;;;;;;4938557;28;37478;-74
2023/03/30 07:51:08;;;;;;;37.47;6.53;;;12.40;99.90;;;;;;4945702;28;37838;-74
2023/03/30 07:53:34;;;;;;;37.92;5.07;;;12.30;99.90;;;;;;4937866;28;36188;-73
2023/03/30 07:56:01;;;;;;;36.85;5.47;;;12.30;99.90;;;;;;4958825;28;39058;-74
2023/03/30 07:58:27;;;;;;;34.10;5.75;;;12.30;99.90;;;;;;4935484;28;47134;-74
2023/03/30 08:00:54;;;;;;;33.28;5.95;;;12.20;99.90;;;;;;4950563;28;39095;-75
2023/03/30 08:03:21;;;;;;;27.95;5.88;;;12.20;99.90;;;;;;4936857;28;36027;-74
2023/03/30 08:05:55;;;;;;;35.78;7.75;;;12.10;99.90;;;;;;4939094;28;39242;-74
2023/03/30 08:08:22;;;;;;;41.70;6.78;;;12.20;99.90;;;;;;4936402;28;37805;-77
2023/03/30 08:10:48;;;;;;;36.78;5.90;;;12.40;99.90;;;;;;4936197;28;38632;-76
2023/03/30 08:13:14;;;;;;;39.92;6.95;;;12.60;99.90;;;;;;4956037;28;36997;-75
2023/03/30 08:15:40;;;;;;;32.95;6.00;;;12.60;99.90;;;;;;4923438;28;38119;-75
2023/03/30 08:18:06;;;;;;;39.13;7.50;;;12.50;99.90;;;;;;4946797;28;38024;-75
2023/03/30 08:20:35;;;;;;;37.75;7.32;;;12.70;99.90;;;;;;4951355;28;38870;-75
2023/03/30 08:23:03;;;;;;;44.80;7.78;;;12.70;99.90;;;;;;4939914;28;37150;-76
2023/03/30 08:25:29;;;;;;;35.65;7.57;;;12.70;99.90;;;;;;4938835;28;36301;-77
2023/03/30 08:27:55;;;;;;;43.90;7.35;;;12.70;99.90;;;;;;4960512;28;38665;-75
2023/03/30 08:30:22;;;;;;;41.33;7.95;;;12.90;99.90;;;;;;4955269;28;38047;-75
2023/03/30 08:32:48;;;;;;;42.85;7.40;;;12.90;99.90;;;;;;4969252;28;37431;-76
2023/03/30 08:35:14;;;;;;;49.08;8.18;;;13.00;99.90;;;;;;4951620;28;39013;-75
2023/03/30 08:37:43;;;;;;;39.08;7.15;;;13.00;99.90;;;;;;4937428;28;37257;-75
2023/03/30 08:40:14;;;;;;;42.67;7.75;;;13.00;99.90;;;;;;4943931;28;36716;-76
2023/03/30 08:43:02;;;;;;;62.42;12.50;;;13.10;99.90;;;;;;4960607;28;39943;-75
2023/03/30 08:45:37;;;;;;;43.00;7.47;;;13.10;99.90;;;;;;4931558;28;46981;-75
2023/03/30 08:48:11;;;;;;;45.33;7.30;;;13.00;99.90;;;;;;4951992;28;38693;-75
2023/03/30 08:50:37;;;;;;;46.60;6.68;;;12.90;99.90;;;;;;4932975;28;36852;-74
2023/03/30 08:53:05;;;;;;;38.85;7.10;;;13.10;99.90;;;;;;4959100;28;37273;-74
2023/03/30 08:55:41;;;;;;;47.58;8.00;;;13.20;99.90;;;;;;4946543;28;37777;-74
2023/03/30 08:58:40;;;;;;;38.45;7.63;;;13.30;99.90;;;;;;4935101;28;38487;-75
2023/03/30 09:01:28;;;;;;;54.10;8.07;;;13.20;99.90;;;;;;4940475;28;38323;-74
2023/03/30 09:04:20;;;;;;;53.13;9.32;;;13.10;99.90;;;;;;4942914;28;37429;-75
2023/03/30 09:06:54;;;;;;;45.60;8.13;;;13.20;99.90;;;;;;4941949;28;47636;-75
2023/03/30 09:09:23;;;;;;;45.72;8.43;;;13.20;99.90;;;;;;4934358;28;37808;-75
2023/03/30 09:12:18;;;;;;;66.10;8.95;;;13.20;99.90;;;;;;4940217;28;37162;-75
2023/03/30 09:15:14;;;;;;;46.10;8.45;;;13.10;99.90;;;;;;4886448;28;47334;-75
2023/03/30 09:17:46;;;;;;;45.58;7.57;;;13.30;99.90;;;;;;4943141;28;49838;-75
2023/03/30 09:20:20;;;;;;;44.35;8.63;;;13.40;99.90;;;;;;4941759;28;37974;-75
2023/03/30 09:22:47;;;;;;;43.90;7.45;;;13.30;99.90;;;;;;4951783;28;38545;-75
2023/03/30 09:25:17;;;;;;;45.90;7.93;;;13.20;99.90;;;;;;4937835;28;39099;-74
2023/03/30 09:28:13;;;;;;;49.65;8.75;;;13.50;99.90;;;;;;4931198;28;37575;-74
2023/03/30 09:30:42;;;;;;;42.95;7.53;;;13.90;99.90;;;;;;4941617;28;47286;-75
2023/03/30 09:33:42;;;;;;;35.00;6.85;;;14.00;99.90;;;;;;4941235;28;37875;-75
2023/03/30 09:36:14;;;;;;;44.88;7.22;;;14.00;99.90;;;;;;4950528;28;37411;-75
2023/03/30 09:38:42;;;;;;;46.17;8.65;;;14.00;99.90;;;;;;4929034;28;40225;-75
2023/03/30 09:41:54;;;;;;;38.30;7.63;;;14.00;99.90;;;;;;4947556;28;38227;-76
2023/03/30 09:44:34;;;;;;;37.88;7.18;;;14.00;99.90;;;;;;4880650;28;37451;-76
2023/03/30 09:47:03;;;;;;;42.70;7.05;;;14.00;99.90;;;;;;4949420;28;36941;-75
2023/03/30 09:49:37;;;;;;;40.53;6.93;;;14.20;99.90;;;;;;4949048;28;48681;-77
2023/03/30 09:52:06;;;;;;;40.13;7.88;;;14.10;99.90;;;;;;4938586;28;37334;-75
2023/03/30 09:54:40;;;;;;;37.85;7.68;;;14.20;99.90;;;;;;4962037;28;39087;-77
2023/03/30 09:57:25;;;;;;;41.50;6.82;;;14.60;99.90;;;;;;4935146;28;36434;-78
2023/03/30 09:59:54;;;;;;;43.05;8.27;;;14.80;99.90;;;;;;4955088;28;39031;-76
2023/03/30 10:02:24;;;;;;;33.92;7.22;;;14.80;99.90;;;;;;4949290;28;38560;-78
2023/03/30 10:04:53;;;;;;;43.33;7.00;;;14.90;99.90;;;;;;4940098;28;37096;-77
2023/03/30 10:07:37;;;;;;;41.55;6.63;;;15.10;99.90;;;;;;4933200;28;37442;-77
2023/03/30 10:10:26;;;;;;;33.60;6.25;;;15.10;99.90;;;;;;4946854;28;38788;-77
2023/03/30 10:13:21;;;;;;;35.38;6.68;;;14.90;99.90;;;;;;4942950;28;48505;-75
2023/03/30 10:15:53;;;;;;;35.40;6.40;;;14.50;99.90;;;;;;4923135;28;47164;-77
2023/03/30 10:18:31;;;;;;;36.38;6.28;;;14.40;99.90;;;;;;4940581;28;37397;-78
2023/03/30 10:21:14;;;;;;;43.08;6.20;;;14.50;99.90;;;;;;4940546;28;38798;-78
2023/03/30 10:23:43;;;;;;;40.55;5.72;;;14.60;99.90;;;;;;4939472;28;47162;-78
2023/03/30 10:26:17;;;;;;;34.45;6.40;;;14.70;99.90;;;;;;4958753;28;38367;-79
2023/03/30 10:29:02;;;;;;;40.83;7.75;;;15.00;99.90;;;;;;4930458;28;36374;-78
2023/03/30 10:31:28;;;;;;;41.58;6.63;;;15.20;99.90;;;;;;4929635;28;46886;-77
2023/03/30 10:33:57;;;;;;;49.45;6.65;;;15.10;99.90;;;;;;4935420;28;38096;-77
2023/03/30 10:36:34;;;;;;;39.58;6.50;;;15.20;99.90;;;;;;4958336;28;38223;-78
2023/03/30 10:39:05;;;;;;;32.15;6.30;;;15.20;99.90;;;;;;4928830;28;36191;-76
2023/03/30 10:41:32;;;;;;;30.85;6.07;;;15.30;99.90;;;;;;4928381;28;47064;-77
2023/03/30 10:44:05;;;;;;;36.72;6.72;;;15.70;99.90;;;;;;4935685;28;37189;-77
2023/03/30 10:46:31;;;;;;;37.53;6.88;;;15.80;99.90;;;;;;4934106;28;47212;-78
2023/03/30 10:49:13;;;;;;;33.92;6.47;;;15.50;99.90;;;;;;4927477;28;36168;-77
2023/03/30 10:52:20;;;;;;;30.52;5.75;;;15.50;99.90;;;;;;4934264;28;47410;-76
2023/03/30 10:54:59;;;;;;;26.88;5.43;;;15.60;99.90;;;;;;4926468;28;47991;-76
2023/03/30 10:57:59;;;;;;;33.38;5.78;;;15.50;99.90;;;;;;4931116;28;37067;-76
2023/03/30 11:00:51;;;;;;;26.75;5.55;;;15.10;99.90;;;;;;4925122;28;36314;-76
2023/03/30 11:03:25;;;;;;;26.50;5.65;;;14.80;99.90;;;;;;4950503;28;38669;-76
2023/03/30 11:05:55;;;;;;;32.28;6.30;;;15.20;99.90;;;;;;4939421;28;37397;-76
2023/03/30 11:08:33;;;;;;;25.77;5.30;;;15.40;99.90;;;;;;4949947;28;38406;-76
2023/03/30 11:11:00;;;;;;;26.35;5.25;;;15.50;99.90;;;;;;4946962;28;37304;-76
2023/03/30 11:13:40;;;;;;;36.92;6.65;;;15.60;99.90;;;;;;4946627;28;39308;-77
2023/03/30 11:16:15;;;;;;;29.52;6.13;;;15.20;99.90;;;;;;4941344;28;39132;-76
2023/03/30 11:19:05;;;;;;;36.10;6.60;;;14.90;99.90;;;;;;4944954;28;38546;-77
2023/03/30 11:21:50;;;;;;;31.10;5.65;;;15.20;99.90;;;;;;4942203;28;48423;-77
2023/03/30 11:24:15;;;;;;;36.03;6.72;;;15.30;99.90;;;;;;4927536;28;37802;-76
2023/03/30 11:26:54;;;;;;;34.78;7.22;;;15.30;99.90;;;;;;4942782;28;38103;-74
2023/03/30 11:29:47;;;;;;;34.65;6.72;;;15.00;99.90;;;;;;4935103;28;37646;-76
2023/03/30 11:32:16;;;;;;;;;;;14.70;99.90;;;;;;4923549;28;37064;-78
2023/03/30 11:34:52;;;;;;;34.03;6.90;;;14.70;99.90;;;;;;4952190;28;38819;-76
2023/03/30 11:37:29;;;;;;;34.28;6.90;;;14.90;99.90;;;;;;4953376;28;38945;-76
2023/03/30 11:40:11;;;;;;;38.65;8.50;;;14.90;99.90;;;;;;4944324;28;38151;-77
2023/03/30 11:42:38;;;;;;;40.38;6.85;;;14.70;99.90;;;;;;4935897;28;48797;-76
2023/03/30 11:45:16;;;;;;;35.38;7.03;;;14.80;99.90;;;;;;4939226;28;38015;-77
2023/03/30 11:47:55;;;;;;;33.25;6.60;;;14.90;99.90;;;;;;4935826;28;38674;-75
2023/03/30 11:50:24;;;;;;;48.08;6.80;;;14.60;99.90;;;;;;4934137;28;37255;-76
2023/03/30 11:53:29;;;;;;;42.00;6.90;;;14.40;99.90;;;;;;4931039;28;36060;-76
2023/03/30 11:56:00;;;;;;;39.08;6.63;;;14.30;99.90;;;;;;4913470;28;47964;-76
2023/03/30 11:58:36;;;;;;;43.47;7.40;;;14.20;99.90;;;;;;4948037;28;38129;-76
2023/03/30 12:01:05;;;;;;;34.10;6.50;;;14.20;99.90;;;;;;4945580;28;38972;-76
2023/03/30 12:03:43;;;;;;;41.92;6.72;;;14.40;99.90;;;;;;4952450;28;38404;-77
2023/03/30 12:06:28;;;;;;;46.40;7.95;;;14.40;99.90;;;;;;4919460;28;37778;-77
2023/03/30 12:09:01;;;;;;;42.28;7.65;;;14.30;99.90;;;;;;4949396;28;39436;-76
2023/03/30 12:11:51;;;;;;;38.65;7.15;;;14.20;99.90;;;;;;4931835;28;46732;-76
2023/03/30 12:14:39;;;;;;;39.70;6.85;;;14.40;99.90;;;;;;4938735;28;36450;-76
2023/03/30 12:17:24;;;;;;;40.80;7.22;;;14.40;99.90;;;;;;4924022;28;37530;-75
2023/03/30 12:19:57;;;;;;;39.10;6.85;;;14.70;99.90;;;;;;4928276;28;37706;-76
2023/03/30 12:22:44;;;;;;;26.85;6.00;;;15.30;99.90;;;;;;4948535;28;37664;-75
2023/03/30 12:25:28;;;;;;;37.40;6.53;;;15.80;99.90;;;;;;4931352;28;37468;-77
2023/03/30 12:27:57;;;;;;;32.25;6.55;;;15.80;99.90;;;;;;4955702;28;39833;-77
2023/03/30 12:30:44;;;;;;;42.85;6.90;;;15.50;99.90;;;;;;4939207;28;37484;-76
2023/03/30 12:33:17;;;;;;;29.13;5.72;;;15.40;99.90;;;;;;4942615;28;38295;-77
2023/03/30 12:35:56;;;;;;;29.40;6.13;;;15.50;99.90;;;;;;4951508;28;37889;-76
2023/03/30 12:38:45;;;;;;;33.95;6.90;;;16.00;99.90;;;;;;4931483;28;38123;-76
2023/03/30 12:41:15;;;;;;;31.17;6.20;;;15.90;99.90;;;;;;4943809;28;39552;-76
2023/03/30 12:44:37;;;;;;;33.03;6.03;;;16.00;99.90;;;;;;4930146;28;37406;-75
2023/03/30 12:47:17;;;;;;;36.40;7.13;;;16.50;99.90;;;;;;4912405;28;48453;-77
2023/03/30 12:50:06;;;;;;;27.60;5.72;;;16.40;99.90;;;;;;4942649;28;40225;-76
2023/03/30 12:52:41;;;;;;;29.20;6.22;;;16.30;99.90;;;;;;4937410;28;47369;-77
2023/03/30 12:55:25;;;;;;;34.15;6.50;;;16.20;99.90;;;;;;4934998;28;38348;-76
2023/03/30 12:58:06;;;;;;;34.95;6.45;;;16.20;99.90;;;;;;4923327;28;37071;-76
2023/03/30 13:01:06;;;;;;;34.65;5.93;;;16.10;99.90;;;;;;4916275;28;47159;-77
2023/03/30 13:03:35;;;;;;;36.78;6.18;;;15.80;99.90;;;;;;4923330;28;47462;-77
2023/03/30 13:06:04;;;;;;;36.53;6.22;;;16.00;99.90;;;;;;4949712;28;38787;-78
2023/03/30 13:08:39;;;;;;;44.85;7.28;;;16.00;99.90;;;;;;4933376;28;37487;-79
2023/03/30 13:11:11;;;;;;;29.52;5.93;;;15.90;99.90;;;;;;4932120;28;39187;-77
2023/03/30 13:13:55;;;;;;;36.55;6.07;;;15.90;99.90;;;;;;4958572;28;38338;-77
2023/03/30 13:16:44;;;;;;;26.85;5.68;;;16.00;99.90;;;;;;4929701;28;38245;-76
2023/03/30 13:19:36;;;;;;;35.67;6.65;;;16.10;99.90;;;;;;4921671;28;35970;-76
2023/03/30 13:22:11;;;;;;;36.65;6.88;;;15.90;99.90;;;;;;4913914;28;39067;-77
2023/03/30 13:25:22;;;;;;;32.65;7.72;;;15.80;99.90;;;;;;4937437;28;38691;-76
2023/03/30 13:27:55;;;;;;;37.85;6.20;;;15.80;99.90;;;;;;4922981;28;47144;-76
2023/03/30 13:30:27;;;;;;;30.98;6.70;;;15.90;99.90;;;;;;4925981;28;35992;-76
2023/03/30 13:33:11;;;;;;;40.88;6.63;;;15.90;99.90;;;;;;4942966;28;38591;-76
2023/03/30 13:36:02;;;;;;;34.50;6.90;;;16.00;99.90;;;;;;4948324;28;47809;-76
2023/03/30 13:38:43;;;;;;;27.67;5.57;;;15.90;99.90;;;;;;4930533;28;47294;-76
2023/03/30 13:41:16;;;;;;;27.23;5.63;;;15.90;99.90;;;;;;4931571;28;35847;-76
2023/03/30 13:44:03;;;;;;;27.70;5.60;;;16.30;99.90;;;;;;4945313;28;38384;-76
2023/03/30 13:46:51;;;;;;;32.92;6.15;;;16.60;99.90;;;;;;4949559;28;48305;-77
2023/03/30 13:49:44;;;;;;;28.23;5.00;;;16.50;99.90;;;;;;4956332;28;38813;-76
2023/03/30 13:52:19;;;;;;;29.27;5.30;;;16.60;99.90;;;;;;4954753;28;37257;-76
2023/03/30 13:54:46;;;;;;;35.35;5.88;;;16.60;99.90;;;;;;4938160;28;37690;-76
2023/03/30 13:57:23;;;;;;;28.38;6.20;;;16.50;99.90;;;;;;4951879;28;39519;-76
2023/03/30 13:59:58;;;;;;;23.67;5.65;;;16.60;99.90;;;;;;4932274;28;37282;-76
2023/03/30 14:02:28;;;;;;;26.55;5.55;;;16.60;99.90;;;;;;4928418;28;36045;-75
2023/03/30 14:05:08;;;;;;;30.38;5.55;;;16.70;99.90;;;;;;4947250;28;37995;-76
2023/03/30 14:07:41;;;;;;;28.67;5.95;;;16.50;99.90;;;;;;4969404;28;48779;-76
2023/03/30 14:10:19;;;;;;;34.92;5.80;;;16.50;99.90;;;;;;4952774;28;38374;-76
2023/03/30 14:12:50;;;;;;;35.55;6.57;;;16.10;99.90;;;;;;4941029;28;36214;-76
2023/03/30 14:15:30;;;;;;;37.50;5.70;;;16.30;99.90;;;;;;4947639;28;38386;-76